sensor_id;sensor_type;location;lat;lon;timestamp;P1;durP1;ratioP1;P2;durP2;ratioP2
5357;SDS011;2702;51.014;7.170;2022-10-30T00:02:17;11.03;;;5.43;;
5357;SDS011;2702;51.014;7.170;2022-10-30T00:04:43;6.70;;;4.43;;
5357;SDS011;2702;51.014;7.170;2022-10-30T00:07:09;8.23;;;5.07;;
5357;SDS011;2702;51.014;7.170;2022-10-30T00:09:35;7.07;;;5.20;;
5357;SDS011;2702;51.014;7.170;2022-10-30T00:12:00;11.10;;;5.47;;
5357;SDS011;2702;51.014;7.170;2022-10-30T00:14:26;8.47;;;5.13;;
5357;SDS011;2702;51.014;7.170;2022-10-30T00:16:52;9.10;;;4.83;;
5357;SDS011;2702;51.014;7.170;2022-10-30T00:19:18;10.20;;;5.07;;
5357;SDS011;2702;51.014;7.170;2022-10-30T00:21:44;7.10;;;5.50;;
5357;SDS011;2702;51.014;7.170;2022-10-30T00:24:09;6.27;;;5.00;;
5357;SDS011;2702;51.014;7.170;2022-10-30T00:26:35;7.30;;;5.60;;
5357;SDS011;2702;51.014;7.170;2022-10-30T00:29:01;6.90;;;5.70;;
5357;SDS011;2702;51.014;7.170;2022-10-30T00:31:27;7.30;;;5.20;;
5357;SDS011;2702;51.014;7.170;2022-10-30T00:33:53;6.80;;;5.10;;
5357;SDS011;2702;51.014;7.170;2022-10-30T00:36:19;9.87;;;4.97;;
5357;SDS011;2702;51.014;7.170;2022-10-30T00:38:46;6.20;;;4.83;;
5357;SDS011;2702;51.014;7.170;2022-10-30T00:41:16;9.10;;;5.23;;
5357;SDS011;2702;51.014;7.170;2022-10-30T00:43:44;11.40;;;5.37;;
5357;SDS011;2702;51.014;7.170;2022-10-30T00:46:23;6.23;;;5.03;;
5357;SDS011;2702;51.014;7.170;2022-10-30T00:48:57;11.10;;;5.70;;
5357;SDS011;2702;51.014;7.170;2022-10-30T00:51:44;7.17;;;4.60;;
5357;SDS011;2702;51.014;7.170;2022-10-30T00:54:13;9.13;;;4.80;;
5357;SDS011;2702;51.014;7.170;2022-10-30T00:56:42;8.57;;;4.93;;
5357;SDS011;2702;51.014;7.170;2022-10-30T00:59:11;7.63;;;5.37;;
5357;SDS011;2702;51.014;7.170;2022-10-30T01:01:41;10.60;;;5.53;;
5357;SDS011;2702;51.014;7.170;2022-10-30T01:04:09;12.30;;;5.80;;
5357;SDS011;2702;51.014;7.170;2022-10-30T01:06:38;11.10;;;5.00;;
5357;SDS011;2702;51.014;7.170;2022-10-30T01:09:07;8.17;;;5.00;;
5357;SDS011;2702;51.014;7.170;2022-10-30T01:11:32;5.70;;;4.63;;
5357;SDS011;2702;51.014;7.170;2022-10-30T01:14:03;11.60;;;6.00;;
5357;SDS011;2702;51.014;7.170;2022-10-30T01:24:52;8.53;;;5.73;;
5357;SDS011;2702;51.014;7.170;2022-10-30T01:30:08;6.20;;;4.90;;
5357;SDS011;2702;51.014;7.170;2022-10-30T01:35:37;7.40;;;5.00;;
5357;SDS011;2702;51.014;7.170;2022-10-30T01:40:44;10.13;;;5.63;;
5357;SDS011;2702;51.014;7.170;2022-10-30T01:43:10;10.37;;;4.83;;
5357;SDS011;2702;51.014;7.170;2022-10-30T01:45:49;12.73;;;5.17;;
5357;SDS011;2702;51.014;7.170;2022-10-30T01:53:57;7.57;;;5.30;;
5357;SDS011;2702;51.014;7.170;2022-10-30T01:59:39;12.07;;;5.53;;
5357;SDS011;2702;51.014;7.170;2022-10-30T02:02:10;8.67;;;5.63;;
5357;SDS011;2702;51.014;7.170;2022-10-30T02:04:37;7.73;;;5.03;;
5357;SDS011;2702;51.014;7.170;2022-10-30T02:07:03;8.13;;;5.87;;
5357;SDS011;2702;51.014;7.170;2022-10-30T02:09:30;8.47;;;5.37;;
5357;SDS011;2702;51.014;7.170;2022-10-30T02:11:56;7.20;;;5.50;;
5357;SDS011;2702;51.014;7.170;2022-10-30T02:14:25;8.70;;;5.73;;
5357;SDS011;2702;51.014;7.170;2022-10-30T02:16:55;8.40;;;4.63;;
5357;SDS011;2702;51.014;7.170;2022-10-30T02:19:22;7.90;;;5.63;;
5357;SDS011;2702;51.014;7.170;2022-10-30T02:21:49;7.57;;;4.80;;
5357;SDS011;2702;51.014;7.170;2022-10-30T02:24:15;10.60;;;6.00;;
5357;SDS011;2702;51.014;7.170;2022-10-30T02:26:41;16.60;;;5.30;;
5357;SDS011;2702;51.014;7.170;2022-10-30T02:29:07;9.00;;;5.07;;
5357;SDS011;2702;51.014;7.170;2022-10-30T02:31:32;9.07;;;5.83;;
5357;SDS011;2702;51.014;7.170;2022-10-30T02:33:59;9.53;;;5.50;;
5357;SDS011;2702;51.014;7.170;2022-10-30T02:36:25;9.60;;;5.13;;
5357;SDS011;2702;51.014;7.170;2022-10-30T02:38:51;8.47;;;5.47;;
5357;SDS011;2702;51.014;7.170;2022-10-30T02:41:16;7.03;;;5.07;;
5357;SDS011;2702;51.014;7.170;2022-10-30T02:43:42;8.50;;;5.80;;
5357;SDS011;2702;51.014;7.170;2022-10-30T02:46:08;7.27;;;5.30;;
5357;SDS011;2702;51.014;7.170;2022-10-30T02:48:34;10.33;;;5.73;;
5357;SDS011;2702;51.014;7.170;2022-10-30T02:51:00;11.00;;;5.33;;
5357;SDS011;2702;51.014;7.170;2022-10-30T02:53:27;8.47;;;5.67;;
5357;SDS011;2702;51.014;7.170;2022-10-30T02:55:53;8.23;;;5.20;;
5357;SDS011;2702;51.014;7.170;2022-10-30T02:58:19;7.00;;;5.20;;
5357;SDS011;2702;51.014;7.170;2022-10-30T03:00:45;9.53;;;5.37;;
5357;SDS011;2702;51.014;7.170;2022-10-30T03:03:11;11.93;;;5.50;;
5357;SDS011;2702;51.014;7.170;2022-10-30T03:05:37;8.00;;;5.93;;
5357;SDS011;2702;51.014;7.170;2022-10-30T03:08:02;9.90;;;6.63;;
5357;SDS011;2702;51.014;7.170;2022-10-30T03:10:28;9.53;;;5.60;;
5357;SDS011;2702;51.014;7.170;2022-10-30T03:12:54;11.07;;;5.83;;
5357;SDS011;2702;51.014;7.170;2022-10-30T03:15:20;7.73;;;6.27;;
5357;SDS011;2702;51.014;7.170;2022-10-30T03:17:46;9.77;;;6.00;;
5357;SDS011;2702;51.014;7.170;2022-10-30T03:20:14;11.57;;;6.57;;
5357;SDS011;2702;51.014;7.170;2022-10-30T03:22:40;8.00;;;5.17;;
5357;SDS011;2702;51.014;7.170;2022-10-30T03:25:05;7.13;;;5.20;;
5357;SDS011;2702;51.014;7.170;2022-10-30T03:27:31;9.77;;;6.03;;
5357;SDS011;2702;51.014;7.170;2022-10-30T03:29:57;11.90;;;6.40;;
5357;SDS011;2702;51.014;7.170;2022-10-30T03:32:23;10.70;;;5.60;;
5357;SDS011;2702;51.014;7.170;2022-10-30T03:34:49;11.10;;;5.60;;
5357;SDS011;2702;51.014;7.170;2022-10-30T03:37:14;7.20;;;5.80;;
5357;SDS011;2702;51.014;7.170;2022-10-30T03:39:40;6.00;;;5.20;;
5357;SDS011;2702;51.014;7.170;2022-10-30T03:42:06;9.20;;;6.40;;
5357;SDS011;2702;51.014;7.170;2022-10-30T03:44:32;9.10;;;6.00;;
5357;SDS011;2702;51.014;7.170;2022-10-30T03:46:58;9.77;;;5.70;;
5357;SDS011;2702;51.014;7.170;2022-10-30T03:49:23;6.87;;;5.37;;
5357;SDS011;2702;51.014;7.170;2022-10-30T03:51:49;7.40;;;5.97;;
5357;SDS011;2702;51.014;7.170;2022-10-30T03:54:15;7.93;;;4.93;;
5357;SDS011;2702;51.014;7.170;2022-10-30T03:56:41;10.93;;;6.03;;
5357;SDS011;2702;51.014;7.170;2022-10-30T03:59:10;7.07;;;5.83;;
5357;SDS011;2702;51.014;7.170;2022-10-30T04:01:36;7.60;;;6.20;;
5357;SDS011;2702;51.014;7.170;2022-10-30T04:04:02;7.53;;;5.50;;
5357;SDS011;2702;51.014;7.170;2022-10-30T04:06:28;7.57;;;5.67;;
5357;SDS011;2702;51.014;7.170;2022-10-30T04:08:54;9.33;;;6.13;;
5357;SDS011;2702;51.014;7.170;2022-10-30T04:11:20;11.20;;;6.40;;
5357;SDS011;2702;51.014;7.170;2022-10-30T04:13:46;8.03;;;5.50;;
5357;SDS011;2702;51.014;7.170;2022-10-30T04:16:11;8.43;;;5.80;;
5357;SDS011;2702;51.014;7.170;2022-10-30T04:18:37;10.20;;;5.93;;
5357;SDS011;2702;51.014;7.170;2022-10-30T04:21:03;9.07;;;5.50;;
5357;SDS011;2702;51.014;7.170;2022-10-30T04:23:29;10.73;;;5.80;;
5357;SDS011;2702;51.014;7.170;2022-10-30T04:25:55;9.70;;;5.80;;
5357;SDS011;2702;51.014;7.170;2022-10-30T04:28:21;9.07;;;5.83;;
5357;SDS011;2702;51.014;7.170;2022-10-30T04:30:46;10.90;;;6.30;;
5357;SDS011;2702;51.014;7.170;2022-10-30T04:33:13;8.60;;;5.70;;
5357;SDS011;2702;51.014;7.170;2022-10-30T04:35:39;13.70;;;6.43;;
5357;SDS011;2702;51.014;7.170;2022-10-30T04:38:10;10.80;;;5.60;;
5357;SDS011;2702;51.014;7.170;2022-10-30T04:40:40;11.53;;;7.60;;
5357;SDS011;2702;51.014;7.170;2022-10-30T04:43:08;8.37;;;5.73;;
5357;SDS011;2702;51.014;7.170;2022-10-30T04:45:36;9.10;;;6.50;;
5357;SDS011;2702;51.014;7.170;2022-10-30T04:48:03;13.50;;;6.70;;
5357;SDS011;2702;51.014;7.170;2022-10-30T04:50:34;9.23;;;5.90;;
5357;SDS011;2702;51.014;7.170;2022-10-30T04:53:04;8.50;;;5.90;;
5357;SDS011;2702;51.014;7.170;2022-10-30T04:55:31;12.40;;;6.57;;
5357;SDS011;2702;51.014;7.170;2022-10-30T04:57:58;10.70;;;7.00;;
5357;SDS011;2702;51.014;7.170;2022-10-30T05:00:27;8.50;;;5.87;;
5357;SDS011;2702;51.014;7.170;2022-10-30T05:02:57;9.27;;;6.00;;
5357;SDS011;2702;51.014;7.170;2022-10-30T05:05:24;10.60;;;6.87;;
5357;SDS011;2702;51.014;7.170;2022-10-30T05:07:51;10.20;;;6.13;;
5357;SDS011;2702;51.014;7.170;2022-10-30T05:10:17;8.83;;;6.10;;
5357;SDS011;2702;51.014;7.170;2022-10-30T05:12:43;10.50;;;6.70;;
5357;SDS011;2702;51.014;7.170;2022-10-30T05:15:10;7.13;;;5.50;;
5357;SDS011;2702;51.014;7.170;2022-10-30T05:17:37;7.50;;;5.60;;
5357;SDS011;2702;51.014;7.170;2022-10-30T05:20:03;10.53;;;6.70;;
5357;SDS011;2702;51.014;7.170;2022-10-30T05:22:30;11.17;;;6.87;;
5357;SDS011;2702;51.014;7.170;2022-10-30T05:24:56;8.87;;;6.77;;
5357;SDS011;2702;51.014;7.170;2022-10-30T05:27:22;8.83;;;6.10;;
5357;SDS011;2702;51.014;7.170;2022-10-30T05:29:48;8.63;;;5.83;;
5357;SDS011;2702;51.014;7.170;2022-10-30T05:32:14;11.00;;;7.13;;
5357;SDS011;2702;51.014;7.170;2022-10-30T05:34:40;8.40;;;6.30;;
5357;SDS011;2702;51.014;7.170;2022-10-30T05:37:06;9.47;;;6.30;;
5357;SDS011;2702;51.014;7.170;2022-10-30T05:39:32;9.90;;;7.10;;
5357;SDS011;2702;51.014;7.170;2022-10-30T05:41:57;11.13;;;6.50;;
5357;SDS011;2702;51.014;7.170;2022-10-30T05:44:23;10.90;;;7.57;;
5357;SDS011;2702;51.014;7.170;2022-10-30T05:46:49;8.53;;;6.00;;
5357;SDS011;2702;51.014;7.170;2022-10-30T05:49:15;8.23;;;5.43;;
5357;SDS011;2702;51.014;7.170;2022-10-30T05:51:42;10.80;;;6.70;;
5357;SDS011;2702;51.014;7.170;2022-10-30T05:54:08;10.70;;;6.70;;
5357;SDS011;2702;51.014;7.170;2022-10-30T05:56:33;11.50;;;6.67;;
5357;SDS011;2702;51.014;7.170;2022-10-30T05:58:59;10.50;;;6.23;;
5357;SDS011;2702;51.014;7.170;2022-10-30T06:01:25;7.93;;;6.17;;
5357;SDS011;2702;51.014;7.170;2022-10-30T06:03:51;12.40;;;6.53;;
5357;SDS011;2702;51.014;7.170;2022-10-30T06:06:17;7.67;;;6.07;;
5357;SDS011;2702;51.014;7.170;2022-10-30T06:08:43;15.47;;;6.97;;
5357;SDS011;2702;51.014;7.170;2022-10-30T06:11:09;13.27;;;7.03;;
5357;SDS011;2702;51.014;7.170;2022-10-30T06:13:34;8.20;;;6.57;;
5357;SDS011;2702;51.014;7.170;2022-10-30T06:16:00;7.67;;;6.23;;
5357;SDS011;2702;51.014;7.170;2022-10-30T06:18:26;10.60;;;6.03;;
5357;SDS011;2702;51.014;7.170;2022-10-30T06:20:53;12.83;;;6.97;;
5357;SDS011;2702;51.014;7.170;2022-10-30T06:23:20;9.93;;;7.10;;
5357;SDS011;2702;51.014;7.170;2022-10-30T06:25:46;11.40;;;6.47;;
5357;SDS011;2702;51.014;7.170;2022-10-30T06:28:12;8.97;;;6.00;;
5357;SDS011;2702;51.014;7.170;2022-10-30T06:30:39;8.50;;;6.47;;
5357;SDS011;2702;51.014;7.170;2022-10-30T06:33:05;6.80;;;5.70;;
5357;SDS011;2702;51.014;7.170;2022-10-30T06:35:31;8.33;;;5.93;;
5357;SDS011;2702;51.014;7.170;2022-10-30T06:37:57;10.57;;;6.00;;
5357;SDS011;2702;51.014;7.170;2022-10-30T06:40:24;10.10;;;6.47;;
5357;SDS011;2702;51.014;7.170;2022-10-30T06:42:51;8.37;;;6.33;;
5357;SDS011;2702;51.014;7.170;2022-10-30T06:45:19;10.67;;;7.50;;
5357;SDS011;2702;51.014;7.170;2022-10-30T06:47:46;10.13;;;6.20;;
5357;SDS011;2702;51.014;7.170;2022-10-30T06:50:14;6.77;;;6.10;;
5357;SDS011;2702;51.014;7.170;2022-10-30T06:52:41;9.20;;;6.13;;
5357;SDS011;2702;51.014;7.170;2022-10-30T06:55:08;11.70;;;6.43;;
5357;SDS011;2702;51.014;7.170;2022-10-30T06:57:34;11.87;;;6.00;;
5357;SDS011;2702;51.014;7.170;2022-10-30T07:00:04;10.13;;;6.30;;
5357;SDS011;2702;51.014;7.170;2022-10-30T07:02:31;10.40;;;6.93;;
5357;SDS011;2702;51.014;7.170;2022-10-30T07:04:57;11.63;;;5.77;;
5357;SDS011;2702;51.014;7.170;2022-10-30T07:07:23;7.97;;;5.70;;
5357;SDS011;2702;51.014;7.170;2022-10-30T07:09:49;7.33;;;5.30;;
5357;SDS011;2702;51.014;7.170;2022-10-30T07:12:15;11.07;;;5.70;;
5357;SDS011;2702;51.014;7.170;2022-10-30T07:14:41;10.10;;;7.07;;
5357;SDS011;2702;51.014;7.170;2022-10-30T07:17:07;9.57;;;6.30;;
5357;SDS011;2702;51.014;7.170;2022-10-30T07:19:33;8.07;;;6.30;;
5357;SDS011;2702;51.014;7.170;2022-10-30T07:21:59;7.60;;;5.97;;
5357;SDS011;2702;51.014;7.170;2022-10-30T07:24:26;7.77;;;6.10;;
5357;SDS011;2702;51.014;7.170;2022-10-30T07:26:52;11.40;;;6.20;;
5357;SDS011;2702;51.014;7.170;2022-10-30T07:29:18;10.10;;;5.60;;
5357;SDS011;2702;51.014;7.170;2022-10-30T07:31:45;9.30;;;6.43;;
5357;SDS011;2702;51.014;7.170;2022-10-30T07:34:12;9.27;;;6.50;;
5357;SDS011;2702;51.014;7.170;2022-10-30T07:36:37;6.90;;;6.20;;
5357;SDS011;2702;51.014;7.170;2022-10-30T07:39:03;8.33;;;5.70;;
5357;SDS011;2702;51.014;7.170;2022-10-30T07:41:29;9.00;;;5.97;;
5357;SDS011;2702;51.014;7.170;2022-10-30T07:43:55;9.03;;;6.30;;
5357;SDS011;2702;51.014;7.170;2022-10-30T07:46:21;9.03;;;5.70;;
5357;SDS011;2702;51.014;7.170;2022-10-30T07:48:46;11.90;;;6.10;;
5357;SDS011;2702;51.014;7.170;2022-10-30T07:51:12;11.23;;;6.03;;
5357;SDS011;2702;51.014;7.170;2022-10-30T07:53:39;8.23;;;5.50;;
5357;SDS011;2702;51.014;7.170;2022-10-30T07:56:05;6.50;;;5.60;;
5357;SDS011;2702;51.014;7.170;2022-10-30T07:58:31;13.27;;;7.17;;
5357;SDS011;2702;51.014;7.170;2022-10-30T08:00:57;6.20;;;4.80;;
5357;SDS011;2702;51.014;7.170;2022-10-30T08:03:23;12.87;;;6.40;;
5357;SDS011;2702;51.014;7.170;2022-10-30T08:05:49;9.47;;;6.10;;
5357;SDS011;2702;51.014;7.170;2022-10-30T08:08:14;8.60;;;6.77;;
5357;SDS011;2702;51.014;7.170;2022-10-30T08:10:40;8.13;;;6.33;;
5357;SDS011;2702;51.014;7.170;2022-10-30T08:13:06;10.90;;;6.67;;
5357;SDS011;2702;51.014;7.170;2022-10-30T08:15:32;7.60;;;5.77;;
5357;SDS011;2702;51.014;7.170;2022-10-30T08:17:58;10.70;;;6.00;;
5357;SDS011;2702;51.014;7.170;2022-10-30T08:20:24;11.57;;;6.60;;
5357;SDS011;2702;51.014;7.170;2022-10-30T08:22:51;13.30;;;5.90;;
5357;SDS011;2702;51.014;7.170;2022-10-30T08:25:19;8.60;;;6.13;;
5357;SDS011;2702;51.014;7.170;2022-10-30T08:27:57;9.63;;;6.13;;
5357;SDS011;2702;51.014;7.170;2022-10-30T08:30:25;6.77;;;5.60;;
5357;SDS011;2702;51.014;7.170;2022-10-30T08:32:57;9.60;;;5.93;;
5357;SDS011;2702;51.014;7.170;2022-10-30T08:35:24;8.90;;;6.20;;
5357;SDS011;2702;51.014;7.170;2022-10-30T08:37:53;9.13;;;6.30;;
5357;SDS011;2702;51.014;7.170;2022-10-30T08:40:23;7.30;;;5.50;;
5357;SDS011;2702;51.014;7.170;2022-10-30T08:42:54;10.00;;;6.13;;
5357;SDS011;2702;51.014;7.170;2022-10-30T08:45:21;9.13;;;5.90;;
5357;SDS011;2702;51.014;7.170;2022-10-30T08:47:54;10.63;;;5.87;;
5357;SDS011;2702;51.014;7.170;2022-10-30T08:50:24;7.13;;;5.73;;
5357;SDS011;2702;51.014;7.170;2022-10-30T08:52:51;6.50;;;5.57;;
5357;SDS011;2702;51.014;7.170;2022-10-30T08:55:17;11.63;;;6.80;;
5357;SDS011;2702;51.014;7.170;2022-10-30T08:57:43;9.77;;;5.67;;
5357;SDS011;2702;51.014;7.170;2022-10-30T09:00:09;9.50;;;6.30;;
5357;SDS011;2702;51.014;7.170;2022-10-30T09:02:36;9.70;;;6.10;;
5357;SDS011;2702;51.014;7.170;2022-10-30T09:05:05;8.47;;;5.60;;
5357;SDS011;2702;51.014;7.170;2022-10-30T09:07:33;12.63;;;5.67;;
5357;SDS011;2702;51.014;7.170;2022-10-30T09:09:59;6.67;;;5.93;;
5357;SDS011;2702;51.014;7.170;2022-10-30T09:12:25;7.07;;;5.43;;
5357;SDS011;2702;51.014;7.170;2022-10-30T09:14:51;9.37;;;5.93;;
5357;SDS011;2702;51.014;7.170;2022-10-30T09:17:17;9.33;;;6.00;;
5357;SDS011;2702;51.014;7.170;2022-10-30T09:19:43;15.20;;;6.33;;
5357;SDS011;2702;51.014;7.170;2022-10-30T09:22:08;19.83;;;6.90;;
5357;SDS011;2702;51.014;7.170;2022-10-30T09:24:34;11.57;;;6.07;;
5357;SDS011;2702;51.014;7.170;2022-10-30T09:27:01;12.03;;;6.03;;
5357;SDS011;2702;51.014;7.170;2022-10-30T09:29:27;8.40;;;6.07;;
5357;SDS011;2702;51.014;7.170;2022-10-30T09:31:55;11.03;;;6.10;;
5357;SDS011;2702;51.014;7.170;2022-10-30T09:34:21;10.03;;;5.73;;
5357;SDS011;2702;51.014;7.170;2022-10-30T09:36:47;9.37;;;5.73;;
5357;SDS011;2702;51.014;7.170;2022-10-30T09:39:13;7.97;;;5.90;;
5357;SDS011;2702;51.014;7.170;2022-10-30T09:42:04;8.37;;;6.17;;
5357;SDS011;2702;51.014;7.170;2022-10-30T09:44:55;16.50;;;5.57;;
5357;SDS011;2702;51.014;7.170;2022-10-30T09:56:14;10.27;;;5.57;;
5357;SDS011;2702;51.014;7.170;2022-10-30T09:59:20;9.30;;;5.90;;
5357;SDS011;2702;51.014;7.170;2022-10-30T10:02:03;12.70;;;6.10;;
5357;SDS011;2702;51.014;7.170;2022-10-30T10:04:47;9.40;;;5.50;;
5357;SDS011;2702;51.014;7.170;2022-10-30T10:07:19;9.33;;;5.00;;
5357;SDS011;2702;51.014;7.170;2022-10-30T10:10:37;8.60;;;5.40;;
5357;SDS011;2702;51.014;7.170;2022-10-30T10:12:52;8.80;;;5.20;;
5357;SDS011;2702;51.014;7.170;2022-10-30T10:18:12;8.00;;;5.30;;
5357;SDS011;2702;51.014;7.170;2022-10-30T10:20:46;7.60;;;5.27;;
5357;SDS011;2702;51.014;7.170;2022-10-30T10:23:19;8.73;;;5.07;;
5357;SDS011;2702;51.014;7.170;2022-10-30T10:25:53;7.53;;;5.70;;
5357;SDS011;2702;51.014;7.170;2022-10-30T10:28:31;9.77;;;5.47;;
5357;SDS011;2702;51.014;7.170;2022-10-30T10:31:29;8.20;;;5.60;;
5357;SDS011;2702;51.014;7.170;2022-10-30T10:43:04;8.73;;;5.10;;
5357;SDS011;2702;51.014;7.170;2022-10-30T10:45:43;8.87;;;5.87;;
5357;SDS011;2702;51.014;7.170;2022-10-30T10:53:17;10.20;;;4.67;;
5357;SDS011;2702;51.014;7.170;2022-10-30T10:55:45;6.50;;;4.37;;
5357;SDS011;2702;51.014;7.170;2022-10-30T10:58:24;7.20;;;4.70;;
5357;SDS011;2702;51.014;7.170;2022-10-30T11:00:57;10.27;;;5.07;;
5357;SDS011;2702;51.014;7.170;2022-10-30T11:03:28;10.37;;;5.23;;
5357;SDS011;2702;51.014;7.170;2022-10-30T11:06:17;7.43;;;5.47;;
5357;SDS011;2702;51.014;7.170;2022-10-30T11:08:48;9.30;;;5.27;;
5357;SDS011;2702;51.014;7.170;2022-10-30T11:11:18;6.50;;;4.73;;
5357;SDS011;2702;51.014;7.170;2022-10-30T11:13:44;6.90;;;4.90;;
5357;SDS011;2702;51.014;7.170;2022-10-30T11:16:32;9.10;;;4.70;;
5357;SDS011;2702;51.014;7.170;2022-10-30T11:19:11;7.10;;;4.63;;
5357;SDS011;2702;51.014;7.170;2022-10-30T11:21:37;9.50;;;4.23;;
5357;SDS011;2702;51.014;7.170;2022-10-30T11:24:25;9.27;;;5.30;;
5357;SDS011;2702;51.014;7.170;2022-10-30T11:29:51;11.60;;;5.30;;
5357;SDS011;2702;51.014;7.170;2022-10-30T11:32:26;7.97;;;4.40;;
5357;SDS011;2702;51.014;7.170;2022-10-30T11:37:35;6.63;;;4.37;;
5357;SDS011;2702;51.014;7.170;2022-10-30T11:40:05;6.27;;;4.50;;
5357;SDS011;2702;51.014;7.170;2022-10-30T11:42:31;6.47;;;4.27;;
5357;SDS011;2702;51.014;7.170;2022-10-30T11:44:59;6.47;;;4.60;;
5357;SDS011;2702;51.014;7.170;2022-10-30T11:47:32;7.27;;;4.43;;
5357;SDS011;2702;51.014;7.170;2022-10-30T11:50:05;7.07;;;4.13;;
5357;SDS011;2702;51.014;7.170;2022-10-30T11:52:54;6.63;;;4.20;;
5357;SDS011;2702;51.014;7.170;2022-10-30T11:55:26;8.83;;;4.13;;
5357;SDS011;2702;51.014;7.170;2022-10-30T11:57:59;7.70;;;4.23;;
5357;SDS011;2702;51.014;7.170;2022-10-30T12:00:27;6.50;;;4.20;;
5357;SDS011;2702;51.014;7.170;2022-10-30T12:02:56;9.83;;;4.27;;
5357;SDS011;2702;51.014;7.170;2022-10-30T12:13:20;7.20;;;4.60;;
5357;SDS011;2702;51.014;7.170;2022-10-30T12:15:48;7.40;;;4.43;;
5357;SDS011;2702;51.014;7.170;2022-10-30T12:18:28;6.83;;;4.57;;
5357;SDS011;2702;51.014;7.170;2022-10-30T12:20:55;8.03;;;4.10;;
5357;SDS011;2702;51.014;7.170;2022-10-30T12:23:25;6.53;;;4.20;;
5357;SDS011;2702;51.014;7.170;2022-10-30T12:25:57;6.40;;;3.93;;
5357;SDS011;2702;51.014;7.170;2022-10-30T12:28:26;6.90;;;4.30;;
5357;SDS011;2702;51.014;7.170;2022-10-30T12:33:41;7.67;;;4.27;;
5357;SDS011;2702;51.014;7.170;2022-10-30T12:36:29;9.73;;;4.23;;
5357;SDS011;2702;51.014;7.170;2022-10-30T12:39:11;7.67;;;4.40;;
5357;SDS011;2702;51.014;7.170;2022-10-30T12:42:09;5.53;;;4.10;;
5357;SDS011;2702;51.014;7.170;2022-10-30T12:44:49;7.00;;;4.33;;
5357;SDS011;2702;51.014;7.170;2022-10-30T12:50:00;10.10;;;4.40;;
5357;SDS011;2702;51.014;7.170;2022-10-30T12:58:00;7.13;;;4.40;;
5357;SDS011;2702;51.014;7.170;2022-10-30T13:00:32;7.33;;;3.60;;
5357;SDS011;2702;51.014;7.170;2022-10-30T13:03:26;6.60;;;3.90;;
5357;SDS011;2702;51.014;7.170;2022-10-30T13:05:54;7.10;;;4.13;;
5357;SDS011;2702;51.014;7.170;2022-10-30T13:13:57;6.60;;;3.87;;
5357;SDS011;2702;51.014;7.170;2022-10-30T13:16:27;8.33;;;3.47;;
5357;SDS011;2702;51.014;7.170;2022-10-30T13:19:00;6.67;;;4.10;;
5357;SDS011;2702;51.014;7.170;2022-10-30T13:21:38;7.60;;;3.67;;
5357;SDS011;2702;51.014;7.170;2022-10-30T13:24:47;6.20;;;4.00;;
5357;SDS011;2702;51.014;7.170;2022-10-30T13:27:26;8.60;;;4.30;;
5357;SDS011;2702;51.014;7.170;2022-10-30T13:30:04;4.23;;;3.00;;
5357;SDS011;2702;51.014;7.170;2022-10-30T13:32:54;8.33;;;4.17;;
5357;SDS011;2702;51.014;7.170;2022-10-30T13:41:00;6.73;;;4.00;;
5357;SDS011;2702;51.014;7.170;2022-10-30T13:44:21;8.30;;;3.90;;
5357;SDS011;2702;51.014;7.170;2022-10-30T13:46:50;5.27;;;3.77;;
5357;SDS011;2702;51.014;7.170;2022-10-30T13:54:28;9.47;;;4.27;;
5357;SDS011;2702;51.014;7.170;2022-10-30T13:57:04;7.73;;;3.63;;
5357;SDS011;2702;51.014;7.170;2022-10-30T14:00:03;5.40;;;3.60;;
5357;SDS011;2702;51.014;7.170;2022-10-30T14:02:41;4.77;;;3.37;;
5357;SDS011;2702;51.014;7.170;2022-10-30T14:10:48;4.13;;;3.00;;
5357;SDS011;2702;51.014;7.170;2022-10-30T14:13:25;5.20;;;3.27;;
5357;SDS011;2702;51.014;7.170;2022-10-30T14:16:01;6.60;;;4.33;;
5357;SDS011;2702;51.014;7.170;2022-10-30T14:18:31;4.17;;;2.70;;
5357;SDS011;2702;51.014;7.170;2022-10-30T14:24:03;7.90;;;3.10;;
5357;SDS011;2702;51.014;7.170;2022-10-30T14:26:37;5.10;;;3.20;;
5357;SDS011;2702;51.014;7.170;2022-10-30T14:29:29;9.47;;;4.13;;
5357;SDS011;2702;51.014;7.170;2022-10-30T14:31:58;4.53;;;3.87;;
5357;SDS011;2702;51.014;7.170;2022-10-30T14:39:48;5.20;;;3.67;;
5357;SDS011;2702;51.014;7.170;2022-10-30T14:55:37;6.03;;;3.80;;
5357;SDS011;2702;51.014;7.170;2022-10-30T14:58:36;4.30;;;3.20;;
5357;SDS011;2702;51.014;7.170;2022-10-30T15:03:39;5.53;;;3.67;;
5357;SDS011;2702;51.014;7.170;2022-10-30T15:15:10;6.63;;;3.73;;
5357;SDS011;2702;51.014;7.170;2022-10-30T15:17:41;8.10;;;3.53;;
5357;SDS011;2702;51.014;7.170;2022-10-30T15:20:18;6.00;;;3.53;;
5357;SDS011;2702;51.014;7.170;2022-10-30T15:22:52;6.23;;;3.90;;
5357;SDS011;2702;51.014;7.170;2022-10-30T15:25:22;4.57;;;3.50;;
5357;SDS011;2702;51.014;7.170;2022-10-30T15:27:51;6.20;;;4.10;;
5357;SDS011;2702;51.014;7.170;2022-10-30T15:30:20;4.70;;;3.70;;
5357;SDS011;2702;51.014;7.170;2022-10-30T15:32:47;4.30;;;3.20;;
5357;SDS011;2702;51.014;7.170;2022-10-30T15:35:15;4.87;;;3.83;;
5357;SDS011;2702;51.014;7.170;2022-10-30T15:40:41;7.03;;;4.20;;
5357;SDS011;2702;51.014;7.170;2022-10-30T15:43:09;7.73;;;3.73;;
5357;SDS011;2702;51.014;7.170;2022-10-30T15:45:39;4.63;;;3.60;;
5357;SDS011;2702;51.014;7.170;2022-10-30T15:51:20;4.60;;;3.53;;
5357;SDS011;2702;51.014;7.170;2022-10-30T15:58:51;4.97;;;4.37;;
5357;SDS011;2702;51.014;7.170;2022-10-30T16:04:17;8.60;;;3.60;;
5357;SDS011;2702;51.014;7.170;2022-10-30T16:06:55;4.57;;;3.60;;
5357;SDS011;2702;51.014;7.170;2022-10-30T16:09:24;10.70;;;4.33;;
5357;SDS011;2702;51.014;7.170;2022-10-30T16:11:51;6.20;;;4.10;;
5357;SDS011;2702;51.014;7.170;2022-10-30T16:14:21;6.37;;;3.30;;
5357;SDS011;2702;51.014;7.170;2022-10-30T16:16:51;3.83;;;3.27;;
5357;SDS011;2702;51.014;7.170;2022-10-30T16:19:24;7.53;;;4.00;;
5357;SDS011;2702;51.014;7.170;2022-10-30T16:21:54;6.90;;;3.60;;
5357;SDS011;2702;51.014;7.170;2022-10-30T16:24:21;5.83;;;3.73;;
5357;SDS011;2702;51.014;7.170;2022-10-30T16:27:13;5.73;;;3.67;;
5357;SDS011;2702;51.014;7.170;2022-10-30T16:29:43;4.97;;;3.13;;
5357;SDS011;2702;51.014;7.170;2022-10-30T16:32:11;6.23;;;4.00;;
5357;SDS011;2702;51.014;7.170;2022-10-30T16:34:39;6.70;;;3.63;;
5357;SDS011;2702;51.014;7.170;2022-10-30T16:37:12;5.27;;;3.80;;
5357;SDS011;2702;51.014;7.170;2022-10-30T16:39:43;6.13;;;3.10;;
5357;SDS011;2702;51.014;7.170;2022-10-30T16:42:17;8.47;;;4.10;;
5357;SDS011;2702;51.014;7.170;2022-10-30T16:44:45;6.63;;;3.40;;
5357;SDS011;2702;51.014;7.170;2022-10-30T16:49:43;8.73;;;4.30;;
5357;SDS011;2702;51.014;7.170;2022-10-30T16:52:15;5.70;;;3.93;;
5357;SDS011;2702;51.014;7.170;2022-10-30T16:54:52;4.97;;;3.90;;
5357;SDS011;2702;51.014;7.170;2022-10-30T16:57:29;5.77;;;4.37;;
5357;SDS011;2702;51.014;7.170;2022-10-30T16:59:59;5.03;;;3.20;;
5357;SDS011;2702;51.014;7.170;2022-10-30T17:02:30;5.93;;;3.60;;
5357;SDS011;2702;51.014;7.170;2022-10-30T17:05:40;5.50;;;4.10;;
5357;SDS011;2702;51.014;7.170;2022-10-30T17:10:53;6.90;;;3.77;;
5357;SDS011;2702;51.014;7.170;2022-10-30T17:16:30;7.47;;;3.70;;
5357;SDS011;2702;51.014;7.170;2022-10-30T17:21:54;5.90;;;3.40;;
5357;SDS011;2702;51.014;7.170;2022-10-30T17:24:23;5.27;;;4.30;;
5357;SDS011;2702;51.014;7.170;2022-10-30T17:26:55;8.17;;;3.77;;
5357;SDS011;2702;51.014;7.170;2022-10-30T17:32:16;6.37;;;3.80;;
5357;SDS011;2702;51.014;7.170;2022-10-30T17:34:45;3.97;;;3.30;;
5357;SDS011;2702;51.014;7.170;2022-10-30T17:37:11;6.13;;;4.10;;
5357;SDS011;2702;51.014;7.170;2022-10-30T17:39:37;6.37;;;4.40;;
5357;SDS011;2702;51.014;7.170;2022-10-30T17:42:03;4.30;;;3.57;;
5357;SDS011;2702;51.014;7.170;2022-10-30T17:44:30;6.23;;;4.00;;
5357;SDS011;2702;51.014;7.170;2022-10-30T17:46:59;5.33;;;3.90;;
5357;SDS011;2702;51.014;7.170;2022-10-30T17:49:26;5.27;;;4.33;;
5357;SDS011;2702;51.014;7.170;2022-10-30T17:51:53;6.30;;;4.40;;
5357;SDS011;2702;51.014;7.170;2022-10-30T17:54:19;8.10;;;4.10;;
5357;SDS011;2702;51.014;7.170;2022-10-30T17:56:45;6.70;;;4.47;;
5357;SDS011;2702;51.014;7.170;2022-10-30T17:59:11;4.57;;;3.80;;
5357;SDS011;2702;51.014;7.170;2022-10-30T18:01:37;6.77;;;4.23;;
5357;SDS011;2702;51.014;7.170;2022-10-30T18:04:13;9.83;;;4.23;;
5357;SDS011;2702;51.014;7.170;2022-10-30T18:06:40;6.33;;;4.10;;
5357;SDS011;2702;51.014;7.170;2022-10-30T18:09:07;5.67;;;4.13;;